Terminal Aerodrome Forecast
Issued by NWS

Home | Current Version | Previous Version | Text Only | Print | Product List | Glossary On
Versions: 1 2 3 4 5 6 7 8 9 10 11 12 13 14
000
FTUS46 KSTO 220300 AAA
TAFSCK
TAF AMD
KSCK 220357Z 2204/2224 30005KT P6SM SKC
     FM220700 30005KT 2SM BR OVC005
     FM221100 30006KT 1/4SM FG OVC002
     FM221800 31009KT 4SM BR OVC007
     FM222200 32009KT P6SM BKN015=

USA.gov is the U.S. government's official web portal to all federal, state and local government web resources and services.